sensor_id;sensor_type;location;lat;lon;timestamp;temperature;humidity
31799;DHT22;18374;51.136;3.502;2022-10-18T00:01:04;14.50;99.90
31799;DHT22;18374;51.136;3.502;2022-10-18T00:03:33;14.50;99.90
31799;DHT22;18374;51.136;3.502;2022-10-18T00:06:02;14.50;99.90
31799;DHT22;18374;51.136;3.502;2022-10-18T00:08:30;14.50;99.90
31799;DHT22;18374;51.136;3.502;2022-10-18T00:10:58;14.50;99.90
31799;DHT22;18374;51.136;3.502;2022-10-18T00:13:26;14.50;99.90
31799;DHT22;18374;51.136;3.502;2022-10-18T00:15:57;14.50;99.90
31799;DHT22;18374;51.136;3.502;2022-10-18T00:18:27;14.40;99.90
31799;DHT22;18374;51.136;3.502;2022-10-18T00:21:04;14.40;99.90
31799;DHT22;18374;51.136;3.502;2022-10-18T00:23:34;14.40;99.90
31799;DHT22;18374;51.136;3.502;2022-10-18T00:26:14;14.40;99.90
31799;DHT22;18374;51.136;3.502;2022-10-18T00:28:44;14.40;99.90
31799;DHT22;18374;51.136;3.502;2022-10-18T00:33:54;14.40;99.90
31799;DHT22;18374;51.136;3.502;2022-10-18T00:36:28;14.40;99.90
31799;DHT22;18374;51.136;3.502;2022-10-18T00:38:57;14.30;99.90
31799;DHT22;18374;51.136;3.502;2022-10-18T00:41:29;14.30;99.90
31799;DHT22;18374;51.136;3.502;2022-10-18T00:47:04;14.30;99.90
31799;DHT22;18374;51.136;3.502;2022-10-18T00:49:39;14.30;99.90
31799;DHT22;18374;51.136;3.502;2022-10-18T00:52:34;14.30;99.90
31799;DHT22;18374;51.136;3.502;2022-10-18T00:55:05;14.20;99.90
31799;DHT22;18374;51.136;3.502;2022-10-18T00:57:34;14.20;99.90
31799;DHT22;18374;51.136;3.502;2022-10-18T01:00:03;14.20;99.90
31799;DHT22;18374;51.136;3.502;2022-10-18T01:02:37;14.20;99.90
31799;DHT22;18374;51.136;3.502;2022-10-18T01:05:07;14.20;99.90
31799;DHT22;18374;51.136;3.502;2022-10-18T01:22:21;14.20;99.90
31799;DHT22;18374;51.136;3.502;2022-10-18T01:31:03;14.20;99.90
31799;DHT22;18374;51.136;3.502;2022-10-18T01:33:36;14.10;99.90
31799;DHT22;18374;51.136;3.502;2022-10-18T01:36:30;14.10;99.90
31799;DHT22;18374;51.136;3.502;2022-10-18T01:39:03;14.00;99.90
31799;DHT22;18374;51.136;3.502;2022-10-18T01:41:36;14.10;99.90
31799;DHT22;18374;51.136;3.502;2022-10-18T01:44:08;14.00;99.90
31799;DHT22;18374;51.136;3.502;2022-10-18T01:46:40;14.10;99.90
31799;DHT22;18374;51.136;3.502;2022-10-18T01:49:08;14.10;99.90
31799;DHT22;18374;51.136;3.502;2022-10-18T01:51:36;14.10;99.90
31799;DHT22;18374;51.136;3.502;2022-10-18T01:54:04;14.10;99.90
31799;DHT22;18374;51.136;3.502;2022-10-18T02:02:30;14.10;99.90
31799;DHT22;18374;51.136;3.502;2022-10-18T02:11:15;14.10;99.90
31799;DHT22;18374;51.136;3.502;2022-10-18T02:14:01;14.10;99.90
31799;DHT22;18374;51.136;3.502;2022-10-18T02:16:38;14.20;99.90
31799;DHT22;18374;51.136;3.502;2022-10-18T02:19:26;14.20;99.90
31799;DHT22;18374;51.136;3.502;2022-10-18T02:22:07;14.20;99.90
31799;DHT22;18374;51.136;3.502;2022-10-18T02:24:40;14.20;99.90
31799;DHT22;18374;51.136;3.502;2022-10-18T02:27:10;14.20;99.90
31799;DHT22;18374;51.136;3.502;2022-10-18T02:29:39;14.20;99.90
31799;DHT22;18374;51.136;3.502;2022-10-18T02:37:41;14.10;99.90
31799;DHT22;18374;51.136;3.502;2022-10-18T02:40:10;14.10;99.90
31799;DHT22;18374;51.136;3.502;2022-10-18T02:42:43;14.10;99.90
31799;DHT22;18374;51.136;3.502;2022-10-18T02:45:15;14.10;99.90
31799;DHT22;18374;51.136;3.502;2022-10-18T02:47:43;14.10;99.90
31799;DHT22;18374;51.136;3.502;2022-10-18T02:50:11;14.10;99.90
31799;DHT22;18374;51.136;3.502;2022-10-18T02:52:38;14.10;99.90
31799;DHT22;18374;51.136;3.502;2022-10-18T02:55:07;14.10;99.90
31799;DHT22;18374;51.136;3.502;2022-10-18T02:57:35;14.10;99.90
31799;DHT22;18374;51.136;3.502;2022-10-18T03:00:04;14.00;99.90
31799;DHT22;18374;51.136;3.502;2022-10-18T03:02:32;14.00;99.90
31799;DHT22;18374;51.136;3.502;2022-10-18T03:05:00;14.00;99.90
31799;DHT22;18374;51.136;3.502;2022-10-18T03:07:28;14.00;99.90
31799;DHT22;18374;51.136;3.502;2022-10-18T03:09:56;14.00;99.90
31799;DHT22;18374;51.136;3.502;2022-10-18T03:12:24;14.00;99.90
31799;DHT22;18374;51.136;3.502;2022-10-18T03:14:51;14.00;99.90
31799;DHT22;18374;51.136;3.502;2022-10-18T03:17:19;14.00;99.90
31799;DHT22;18374;51.136;3.502;2022-10-18T03:19:47;14.00;99.90
31799;DHT22;18374;51.136;3.502;2022-10-18T03:22:14;14.00;99.90
31799;DHT22;18374;51.136;3.502;2022-10-18T03:24:42;13.90;99.90
31799;DHT22;18374;51.136;3.502;2022-10-18T03:27:10;13.90;99.90
31799;DHT22;18374;51.136;3.502;2022-10-18T03:29:37;13.90;99.90
31799;DHT22;18374;51.136;3.502;2022-10-18T03:32:05;13.90;99.90
31799;DHT22;18374;51.136;3.502;2022-10-18T03:34:33;14.00;99.90
31799;DHT22;18374;51.136;3.502;2022-10-18T03:37:00;14.00;99.90
31799;DHT22;18374;51.136;3.502;2022-10-18T03:39:31;14.00;99.90
31799;DHT22;18374;51.136;3.502;2022-10-18T03:41:59;14.00;99.90
31799;DHT22;18374;51.136;3.502;2022-10-18T03:44:26;13.90;99.90
31799;DHT22;18374;51.136;3.502;2022-10-18T03:46:54;13.90;99.90
31799;DHT22;18374;51.136;3.502;2022-10-18T03:49:22;13.80;99.90
31799;DHT22;18374;51.136;3.502;2022-10-18T03:51:49;13.80;99.90
31799;DHT22;18374;51.136;3.502;2022-10-18T03:54:17;13.70;99.90
31799;DHT22;18374;51.136;3.502;2022-10-18T03:56:45;13.80;99.90
31799;DHT22;18374;51.136;3.502;2022-10-18T03:59:13;13.60;99.90
31799;DHT22;18374;51.136;3.502;2022-10-18T04:01:43;13.50;99.90
31799;DHT22;18374;51.136;3.502;2022-10-18T04:04:10;13.40;99.90
31799;DHT22;18374;51.136;3.502;2022-10-18T04:06:38;13.30;99.90
31799;DHT22;18374;51.136;3.502;2022-10-18T04:09:06;13.30;99.90
31799;DHT22;18374;51.136;3.502;2022-10-18T04:11:36;13.20;99.90
31799;DHT22;18374;51.136;3.502;2022-10-18T04:14:04;13.20;99.90
31799;DHT22;18374;51.136;3.502;2022-10-18T04:16:32;13.20;99.90
31799;DHT22;18374;51.136;3.502;2022-10-18T04:19:00;13.20;99.90
31799;DHT22;18374;51.136;3.502;2022-10-18T04:21:27;13.30;99.90
31799;DHT22;18374;51.136;3.502;2022-10-18T04:23:55;13.30;99.90
31799;DHT22;18374;51.136;3.502;2022-10-18T04:26:23;13.10;99.90
31799;DHT22;18374;51.136;3.502;2022-10-18T04:28:50;13.10;99.90
31799;DHT22;18374;51.136;3.502;2022-10-18T04:31:18;13.10;99.90
31799;DHT22;18374;51.136;3.502;2022-10-18T04:33:46;13.10;99.90
31799;DHT22;18374;51.136;3.502;2022-10-18T04:36:13;13.20;99.90
31799;DHT22;18374;51.136;3.502;2022-10-18T04:38:41;13.20;99.90
31799;DHT22;18374;51.136;3.502;2022-10-18T04:41:09;13.20;99.90
31799;DHT22;18374;51.136;3.502;2022-10-18T04:43:36;13.20;99.90
31799;DHT22;18374;51.136;3.502;2022-10-18T04:46:07;13.20;99.90
31799;DHT22;18374;51.136;3.502;2022-10-18T04:48:34;13.20;99.90
31799;DHT22;18374;51.136;3.502;2022-10-18T04:51:02;13.00;99.90
31799;DHT22;18374;51.136;3.502;2022-10-18T04:53:30;13.00;99.90
31799;DHT22;18374;51.136;3.502;2022-10-18T04:55:58;12.90;99.90
31799;DHT22;18374;51.136;3.502;2022-10-18T04:58:25;12.80;99.90
31799;DHT22;18374;51.136;3.502;2022-10-18T05:00:53;12.80;99.90
31799;DHT22;18374;51.136;3.502;2022-10-18T05:03:20;12.80;99.90
31799;DHT22;18374;51.136;3.502;2022-10-18T05:05:48;12.80;99.90
31799;DHT22;18374;51.136;3.502;2022-10-18T05:08:29;12.80;99.90
31799;DHT22;18374;51.136;3.502;2022-10-18T05:11:01;12.90;99.90
31799;DHT22;18374;51.136;3.502;2022-10-18T05:13:30;12.90;99.90
31799;DHT22;18374;51.136;3.502;2022-10-18T05:15:57;12.90;99.90
31799;DHT22;18374;51.136;3.502;2022-10-18T05:18:26;12.90;99.90
31799;DHT22;18374;51.136;3.502;2022-10-18T05:20:54;12.90;99.90
31799;DHT22;18374;51.136;3.502;2022-10-18T05:23:22;12.80;99.90
31799;DHT22;18374;51.136;3.502;2022-10-18T05:25:50;12.70;99.90
31799;DHT22;18374;51.136;3.502;2022-10-18T05:28:18;12.60;99.90
31799;DHT22;18374;51.136;3.502;2022-10-18T05:31:08;12.60;99.90
31799;DHT22;18374;51.136;3.502;2022-10-18T05:33:36;12.70;99.90
31799;DHT22;18374;51.136;3.502;2022-10-18T05:36:04;12.70;99.90
31799;DHT22;18374;51.136;3.502;2022-10-18T05:38:32;12.80;99.90
31799;DHT22;18374;51.136;3.502;2022-10-18T05:41:03;12.70;99.90
31799;DHT22;18374;51.136;3.502;2022-10-18T05:43:31;12.70;99.90
31799;DHT22;18374;51.136;3.502;2022-10-18T05:45:59;12.70;99.90
31799;DHT22;18374;51.136;3.502;2022-10-18T05:48:27;12.50;99.90
31799;DHT22;18374;51.136;3.502;2022-10-18T05:50:57;12.40;99.90
31799;DHT22;18374;51.136;3.502;2022-10-18T05:53:26;12.30;99.90
31799;DHT22;18374;51.136;3.502;2022-10-18T05:56:09;12.10;99.90
31799;DHT22;18374;51.136;3.502;2022-10-18T05:58:41;12.00;99.90
31799;DHT22;18374;51.136;3.502;2022-10-18T06:01:09;12.00;99.90
31799;DHT22;18374;51.136;3.502;2022-10-18T06:03:37;12.00;99.90
31799;DHT22;18374;51.136;3.502;2022-10-18T06:06:09;11.90;99.90
31799;DHT22;18374;51.136;3.502;2022-10-18T06:08:40;11.90;99.90
31799;DHT22;18374;51.136;3.502;2022-10-18T06:11:17;11.90;99.90
31799;DHT22;18374;51.136;3.502;2022-10-18T06:13:47;12.00;99.90
31799;DHT22;18374;51.136;3.502;2022-10-18T06:16:18;12.00;99.90
31799;DHT22;18374;51.136;3.502;2022-10-18T06:18:56;12.00;99.90
31799;DHT22;18374;51.136;3.502;2022-10-18T06:21:26;12.10;99.90
31799;DHT22;18374;51.136;3.502;2022-10-18T06:23:57;12.10;99.90
31799;DHT22;18374;51.136;3.502;2022-10-18T06:26:29;12.00;99.90
31799;DHT22;18374;51.136;3.502;2022-10-18T06:28:56;12.00;99.90
31799;DHT22;18374;51.136;3.502;2022-10-18T06:31:24;12.00;99.90
31799;DHT22;18374;51.136;3.502;2022-10-18T06:33:52;12.00;99.90
31799;DHT22;18374;51.136;3.502;2022-10-18T06:36:20;11.90;99.90
31799;DHT22;18374;51.136;3.502;2022-10-18T06:38:51;11.90;99.90
31799;DHT22;18374;51.136;3.502;2022-10-18T06:41:20;11.90;99.90
31799;DHT22;18374;51.136;3.502;2022-10-18T06:43:49;11.90;99.90
31799;DHT22;18374;51.136;3.502;2022-10-18T06:46:17;12.00;99.90
31799;DHT22;18374;51.136;3.502;2022-10-18T06:48:45;12.00;99.90
31799;DHT22;18374;51.136;3.502;2022-10-18T06:51:13;12.00;99.90
31799;DHT22;18374;51.136;3.502;2022-10-18T06:53:41;12.00;99.90
31799;DHT22;18374;51.136;3.502;2022-10-18T06:56:29;12.00;99.90
31799;DHT22;18374;51.136;3.502;2022-10-18T06:58:57;12.00;99.90
31799;DHT22;18374;51.136;3.502;2022-10-18T07:01:29;12.00;99.90
31799;DHT22;18374;51.136;3.502;2022-10-18T07:03:58;12.10;99.90
31799;DHT22;18374;51.136;3.502;2022-10-18T07:06:26;12.10;99.90
31799;DHT22;18374;51.136;3.502;2022-10-18T07:08:54;12.10;99.90
31799;DHT22;18374;51.136;3.502;2022-10-18T07:11:25;12.10;99.90
31799;DHT22;18374;51.136;3.502;2022-10-18T07:13:57;12.00;99.90
31799;DHT22;18374;51.136;3.502;2022-10-18T07:16:32;12.00;99.90
31799;DHT22;18374;51.136;3.502;2022-10-18T07:19:01;12.00;99.90
31799;DHT22;18374;51.136;3.502;2022-10-18T07:21:29;11.80;99.90
31799;DHT22;18374;51.136;3.502;2022-10-18T07:23:57;11.80;99.90
31799;DHT22;18374;51.136;3.502;2022-10-18T07:28:59;11.90;99.90
31799;DHT22;18374;51.136;3.502;2022-10-18T07:31:29;12.10;99.90
31799;DHT22;18374;51.136;3.502;2022-10-18T07:33:56;12.30;99.90
31799;DHT22;18374;51.136;3.502;2022-10-18T07:36:24;12.30;99.90
31799;DHT22;18374;51.136;3.502;2022-10-18T07:38:52;12.40;99.90
31799;DHT22;18374;51.136;3.502;2022-10-18T07:41:21;12.40;99.90
31799;DHT22;18374;51.136;3.502;2022-10-18T07:43:50;12.30;99.90
31799;DHT22;18374;51.136;3.502;2022-10-18T07:46:20;12.30;99.90
31799;DHT22;18374;51.136;3.502;2022-10-18T07:48:49;12.20;99.90
31799;DHT22;18374;51.136;3.502;2022-10-18T07:51:18;12.30;99.90
31799;DHT22;18374;51.136;3.502;2022-10-18T07:53:46;12.30;99.90
31799;DHT22;18374;51.136;3.502;2022-10-18T07:56:16;12.40;99.90
31799;DHT22;18374;51.136;3.502;2022-10-18T07:58:49;12.50;99.90
31799;DHT22;18374;51.136;3.502;2022-10-18T08:01:23;12.60;99.90
31799;DHT22;18374;51.136;3.502;2022-10-18T08:03:52;12.80;99.90
31799;DHT22;18374;51.136;3.502;2022-10-18T08:06:21;12.90;99.90
31799;DHT22;18374;51.136;3.502;2022-10-18T08:08:50;13.00;99.90
31799;DHT22;18374;51.136;3.502;2022-10-18T08:11:20;13.10;99.90
31799;DHT22;18374;51.136;3.502;2022-10-18T08:13:51;13.20;99.90
31799;DHT22;18374;51.136;3.502;2022-10-18T08:16:25;13.30;99.90
31799;DHT22;18374;51.136;3.502;2022-10-18T08:18:56;13.40;99.90
31799;DHT22;18374;51.136;3.502;2022-10-18T08:21:25;13.50;99.90
31799;DHT22;18374;51.136;3.502;2022-10-18T08:23:53;13.70;99.90
31799;DHT22;18374;51.136;3.502;2022-10-18T08:26:22;13.80;99.90
31799;DHT22;18374;51.136;3.502;2022-10-18T08:28:50;13.90;99.90
31799;DHT22;18374;51.136;3.502;2022-10-18T08:31:38;14.00;99.90
31799;DHT22;18374;51.136;3.502;2022-10-18T08:34:05;14.10;99.90
31799;DHT22;18374;51.136;3.502;2022-10-18T08:36:33;14.20;99.90
31799;DHT22;18374;51.136;3.502;2022-10-18T08:39:01;14.30;99.90
31799;DHT22;18374;51.136;3.502;2022-10-18T08:44:13;14.50;99.90
31799;DHT22;18374;51.136;3.502;2022-10-18T08:46:51;14.60;99.90
31799;DHT22;18374;51.136;3.502;2022-10-18T08:49:43;14.70;99.90
31799;DHT22;18374;51.136;3.502;2022-10-18T08:55:28;14.90;99.90
31799;DHT22;18374;51.136;3.502;2022-10-18T08:58:12;15.00;99.90
31799;DHT22;18374;51.136;3.502;2022-10-18T09:00:53;15.00;99.90
31799;DHT22;18374;51.136;3.502;2022-10-18T09:18:37;15.50;99.90
31799;DHT22;18374;51.136;3.502;2022-10-18T09:21:19;15.70;99.90
31799;DHT22;18374;51.136;3.502;2022-10-18T09:24:12;15.70;99.90
31799;DHT22;18374;51.136;3.502;2022-10-18T09:26:47;15.80;99.90
31799;DHT22;18374;51.136;3.502;2022-10-18T09:35:20;15.90;99.90
31799;DHT22;18374;51.136;3.502;2022-10-18T09:37:58;16.00;99.90
31799;DHT22;18374;51.136;3.502;2022-10-18T09:40:32;16.10;99.90
31799;DHT22;18374;51.136;3.502;2022-10-18T09:43:14;16.20;99.90
31799;DHT22;18374;51.136;3.502;2022-10-18T09:45:44;16.30;99.90
31799;DHT22;18374;51.136;3.502;2022-10-18T09:48:32;16.40;99.90
31799;DHT22;18374;51.136;3.502;2022-10-18T09:51:14;16.30;99.90
31799;DHT22;18374;51.136;3.502;2022-10-18T10:02:04;16.60;99.90
31799;DHT22;18374;51.136;3.502;2022-10-18T10:04:32;16.70;99.90
31799;DHT22;18374;51.136;3.502;2022-10-18T10:07:00;16.70;99.90
31799;DHT22;18374;51.136;3.502;2022-10-18T10:09:35;16.80;99.90
31799;DHT22;18374;51.136;3.502;2022-10-18T10:12:24;16.80;99.90
31799;DHT22;18374;51.136;3.502;2022-10-18T10:17:56;16.90;99.90
31799;DHT22;18374;51.136;3.502;2022-10-18T10:23:27;16.90;99.90
31799;DHT22;18374;51.136;3.502;2022-10-18T10:25:59;17.10;99.90
31799;DHT22;18374;51.136;3.502;2022-10-18T10:28:32;17.20;99.90
31799;DHT22;18374;51.136;3.502;2022-10-18T10:31:27;17.30;99.90
31799;DHT22;18374;51.136;3.502;2022-10-18T10:34:08;17.30;99.90
31799;DHT22;18374;51.136;3.502;2022-10-18T10:36:52;17.30;99.90
31799;DHT22;18374;51.136;3.502;2022-10-18T10:39:23;17.20;99.90
31799;DHT22;18374;51.136;3.502;2022-10-18T10:41:56;17.10;99.90
31799;DHT22;18374;51.136;3.502;2022-10-18T10:44:28;17.00;99.90
31799;DHT22;18374;51.136;3.502;2022-10-18T10:46:57;17.10;99.90
31799;DHT22;18374;51.136;3.502;2022-10-18T10:49:46;17.00;99.90
31799;DHT22;18374;51.136;3.502;2022-10-18T10:52:25;17.00;99.90
31799;DHT22;18374;51.136;3.502;2022-10-18T10:54:56;17.10;99.90
31799;DHT22;18374;51.136;3.502;2022-10-18T10:57:49;17.20;99.90
31799;DHT22;18374;51.136;3.502;2022-10-18T11:00:42;17.30;99.90
31799;DHT22;18374;51.136;3.502;2022-10-18T11:03:20;17.50;99.90
31799;DHT22;18374;51.136;3.502;2022-10-18T11:05:56;17.60;99.90
31799;DHT22;18374;51.136;3.502;2022-10-18T11:08:32;17.70;99.90
31799;DHT22;18374;51.136;3.502;2022-10-18T11:13:53;17.80;99.90
31799;DHT22;18374;51.136;3.502;2022-10-18T11:16:57;17.70;99.90
31799;DHT22;18374;51.136;3.502;2022-10-18T11:20:09;17.60;99.90
31799;DHT22;18374;51.136;3.502;2022-10-18T11:22:44;17.40;99.90
31799;DHT22;18374;51.136;3.502;2022-10-18T11:25:16;17.30;99.90
31799;DHT22;18374;51.136;3.502;2022-10-18T11:28:05;17.20;99.90
31799;DHT22;18374;51.136;3.502;2022-10-18T11:31:23;17.20;99.90
31799;DHT22;18374;51.136;3.502;2022-10-18T11:34:03;17.30;99.90
31799;DHT22;18374;51.136;3.502;2022-10-18T11:36:59;17.20;99.90
31799;DHT22;18374;51.136;3.502;2022-10-18T11:55:01;17.20;99.90
31799;DHT22;18374;51.136;3.502;2022-10-18T12:00:47;17.10;99.90
31799;DHT22;18374;51.136;3.502;2022-10-18T12:03:29;17.10;99.90
31799;DHT22;18374;51.136;3.502;2022-10-18T12:06:05;17.20;99.90
31799;DHT22;18374;51.136;3.502;2022-10-18T12:08:46;17.20;99.90
31799;DHT22;18374;51.136;3.502;2022-10-18T12:11:21;17.20;99.90
31799;DHT22;18374;51.136;3.502;2022-10-18T12:13:55;17.20;99.90
31799;DHT22;18374;51.136;3.502;2022-10-18T12:16:28;17.20;99.90
31799;DHT22;18374;51.136;3.502;2022-10-18T12:19:28;17.20;99.90
31799;DHT22;18374;51.136;3.502;2022-10-18T12:22:09;17.30;99.90
31799;DHT22;18374;51.136;3.502;2022-10-18T12:24:41;17.30;99.90
31799;DHT22;18374;51.136;3.502;2022-10-18T12:27:12;17.40;99.90
31799;DHT22;18374;51.136;3.502;2022-10-18T12:29:46;17.40;99.90
31799;DHT22;18374;51.136;3.502;2022-10-18T12:32:27;17.50;99.90
31799;DHT22;18374;51.136;3.502;2022-10-18T12:35:03;17.60;99.90
31799;DHT22;18374;51.136;3.502;2022-10-18T12:40:41;17.70;99.90
31799;DHT22;18374;51.136;3.502;2022-10-18T12:43:28;17.90;99.90
31799;DHT22;18374;51.136;3.502;2022-10-18T12:46:07;18.00;99.90
31799;DHT22;18374;51.136;3.502;2022-10-18T12:48:42;18.00;99.90
31799;DHT22;18374;51.136;3.502;2022-10-18T12:51:19;18.10;99.90
31799;DHT22;18374;51.136;3.502;2022-10-18T12:54:08;18.20;99.90
31799;DHT22;18374;51.136;3.502;2022-10-18T12:56:39;18.30;99.90
31799;DHT22;18374;51.136;3.502;2022-10-18T13:02:17;18.30;99.90
31799;DHT22;18374;51.136;3.502;2022-10-18T13:04:47;18.30;99.90
31799;DHT22;18374;51.136;3.502;2022-10-18T13:07:32;18.30;99.90
31799;DHT22;18374;51.136;3.502;2022-10-18T13:16:37;18.20;99.90
31799;DHT22;18374;51.136;3.502;2022-10-18T13:22:28;18.10;99.90
31799;DHT22;18374;51.136;3.502;2022-10-18T13:27:53;18.20;99.90
31799;DHT22;18374;51.136;3.502;2022-10-18T13:33:33;18.40;99.90
31799;DHT22;18374;51.136;3.502;2022-10-18T13:36:24;18.60;99.90
31799;DHT22;18374;51.136;3.502;2022-10-18T13:41:22;18.70;99.90
31799;DHT22;18374;51.136;3.502;2022-10-18T13:44:27;18.90;99.90
31799;DHT22;18374;51.136;3.502;2022-10-18T13:49:37;18.90;99.90
31799;DHT22;18374;51.136;3.502;2022-10-18T13:52:28;18.90;99.90
31799;DHT22;18374;51.136;3.502;2022-10-18T14:08:02;19.00;99.90
31799;DHT22;18374;51.136;3.502;2022-10-18T14:13:46;19.20;99.90
31799;DHT22;18374;51.136;3.502;2022-10-18T14:19:43;19.00;99.90
31799;DHT22;18374;51.136;3.502;2022-10-18T14:22:41;18.80;99.90
31799;DHT22;18374;51.136;3.502;2022-10-18T14:25:30;18.50;99.90
31799;DHT22;18374;51.136;3.502;2022-10-18T14:28:12;18.40;99.90
31799;DHT22;18374;51.136;3.502;2022-10-18T14:31:02;18.30;99.90
31799;DHT22;18374;51.136;3.502;2022-10-18T14:39:01;18.00;99.90
31799;DHT22;18374;51.136;3.502;2022-10-18T14:41:36;18.00;99.90
31799;DHT22;18374;51.136;3.502;2022-10-18T14:46:45;17.90;99.90
31799;DHT22;18374;51.136;3.502;2022-10-18T14:49:14;17.90;99.90
31799;DHT22;18374;51.136;3.502;2022-10-18T14:51:44;17.90;99.90
31799;DHT22;18374;51.136;3.502;2022-10-18T14:54:17;18.00;99.90
31799;DHT22;18374;51.136;3.502;2022-10-18T14:56:47;18.00;99.90
31799;DHT22;18374;51.136;3.502;2022-10-18T14:59:23;18.00;99.90
31799;DHT22;18374;51.136;3.502;2022-10-18T15:01:59;17.90;99.90
31799;DHT22;18374;51.136;3.502;2022-10-18T15:04:28;17.80;99.90
31799;DHT22;18374;51.136;3.502;2022-10-18T15:07:01;17.70;99.90
31799;DHT22;18374;51.136;3.502;2022-10-18T15:09:32;17.70;99.90
31799;DHT22;18374;51.136;3.502;2022-10-18T15:12:04;17.70;99.90
31799;DHT22;18374;51.136;3.502;2022-10-18T15:14:33;17.60;99.90
31799;DHT22;18374;51.136;3.502;2022-10-18T15:17:06;17.50;99.90
31799;DHT22;18374;51.136;3.502;2022-10-18T15:19:38;17.50;99.90
31799;DHT22;18374;51.136;3.502;2022-10-18T15:22:08;17.50;99.90
31799;DHT22;18374;51.136;3.502;2022-10-18T15:25:13;17.40;99.90
31799;DHT22;18374;51.136;3.502;2022-10-18T15:27:48;17.40;99.90
31799;DHT22;18374;51.136;3.502;2022-10-18T15:30:27;17.40;99.90
31799;DHT22;18374;51.136;3.502;2022-10-18T15:33:01;17.50;99.90
31799;DHT22;18374;51.136;3.502;2022-10-18T15:35:31;17.60;99.90
31799;DHT22;18374;51.136;3.502;2022-10-18T15:38:16;17.50;99.90
31799;DHT22;18374;51.136;3.502;2022-10-18T15:40:49;17.60;99.90
31799;DHT22;18374;51.136;3.502;2022-10-18T15:43:37;17.60;99.90
31799;DHT22;18374;51.136;3.502;2022-10-18T15:46:05;17.40;99.90
31799;DHT22;18374;51.136;3.502;2022-10-18T15:48:43;17.30;99.90
31799;DHT22;18374;51.136;3.502;2022-10-18T15:51:46;17.20;99.90
31799;DHT22;18374;51.136;3.502;2022-10-18T15:54:18;17.20;99.90
31799;DHT22;18374;51.136;3.502;2022-10-18T15:56:56;17.10;99.90
31799;DHT22;18374;51.136;3.502;2022-10-18T15:59:25;17.10;99.90
31799;DHT22;18374;51.136;3.502;2022-10-18T16:01:54;17.10;99.90
31799;DHT22;18374;51.136;3.502;2022-10-18T16:04:27;17.00;99.90
31799;DHT22;18374;51.136;3.502;2022-10-18T16:06:57;17.00;99.90
31799;DHT22;18374;51.136;3.502;2022-10-18T16:09:27;17.00;99.90
31799;DHT22;18374;51.136;3.502;2022-10-18T16:11:55;16.90;99.90
31799;DHT22;18374;51.136;3.502;2022-10-18T16:14:25;16.80;99.90
31799;DHT22;18374;51.136;3.502;2022-10-18T16:16:54;16.80;99.90
31799;DHT22;18374;51.136;3.502;2022-10-18T16:19:27;16.80;99.90
31799;DHT22;18374;51.136;3.502;2022-10-18T16:21:54;16.70;99.90
31799;DHT22;18374;51.136;3.502;2022-10-18T16:24:22;16.60;99.90
31799;DHT22;18374;51.136;3.502;2022-10-18T16:26:51;16.50;99.90
31799;DHT22;18374;51.136;3.502;2022-10-18T16:29:22;16.40;99.90
31799;DHT22;18374;51.136;3.502;2022-10-18T16:31:54;16.30;99.90
31799;DHT22;18374;51.136;3.502;2022-10-18T16:34:25;16.20;99.90
31799;DHT22;18374;51.136;3.502;2022-10-18T16:36:53;16.20;99.90
31799;DHT22;18374;51.136;3.502;2022-10-18T16:39:22;16.10;99.90
31799;DHT22;18374;51.136;3.502;2022-10-18T16:41:52;16.10;99.90
31799;DHT22;18374;51.136;3.502;2022-10-18T16:44:19;16.00;99.90
31799;DHT22;18374;51.136;3.502;2022-10-18T16:46:48;16.00;99.90
31799;DHT22;18374;51.136;3.502;2022-10-18T16:49:22;15.90;99.90
31799;DHT22;18374;51.136;3.502;2022-10-18T16:51:53;15.80;99.90
31799;DHT22;18374;51.136;3.502;2022-10-18T16:54:21;15.70;99.90
31799;DHT22;18374;51.136;3.502;2022-10-18T16:56:49;15.60;99.90
31799;DHT22;18374;51.136;3.502;2022-10-18T16:59:29;15.60;99.90
31799;DHT22;18374;51.136;3.502;2022-10-18T17:01:57;15.50;99.90
31799;DHT22;18374;51.136;3.502;2022-10-18T17:04:27;15.40;99.90
31799;DHT22;18374;51.136;3.502;2022-10-18T17:06:56;15.40;99.90
31799;DHT22;18374;51.136;3.502;2022-10-18T17:09:24;15.30;99.90
31799;DHT22;18374;51.136;3.502;2022-10-18T17:11:52;15.20;99.90
31799;DHT22;18374;51.136;3.502;2022-10-18T17:14:20;15.20;99.90
31799;DHT22;18374;51.136;3.502;2022-10-18T17:16:48;15.10;99.90
31799;DHT22;18374;51.136;3.502;2022-10-18T17:19:22;15.10;99.90
31799;DHT22;18374;51.136;3.502;2022-10-18T17:21:50;15.00;99.90
31799;DHT22;18374;51.136;3.502;2022-10-18T17:24:17;15.00;99.90
31799;DHT22;18374;51.136;3.502;2022-10-18T17:26:45;14.90;99.90
31799;DHT22;18374;51.136;3.502;2022-10-18T17:29:12;14.80;99.90
31799;DHT22;18374;51.136;3.502;2022-10-18T17:31:40;14.80;99.90
31799;DHT22;18374;51.136;3.502;2022-10-18T17:34:08;14.70;99.90
31799;DHT22;18374;51.136;3.502;2022-10-18T17:36:36;14.60;99.90
31799;DHT22;18374;51.136;3.502;2022-10-18T17:39:04;14.50;99.90
31799;DHT22;18374;51.136;3.502;2022-10-18T17:41:32;14.50;99.90
31799;DHT22;18374;51.136;3.502;2022-10-18T17:44:02;14.50;99.90
31799;DHT22;18374;51.136;3.502;2022-10-18T17:46:30;14.40;99.90
31799;DHT22;18374;51.136;3.502;2022-10-18T17:48:58;14.30;99.90
31799;DHT22;18374;51.136;3.502;2022-10-18T17:51:26;14.30;99.90
31799;DHT22;18374;51.136;3.502;2022-10-18T17:53:53;14.20;99.90
31799;DHT22;18374;51.136;3.502;2022-10-18T17:56:21;14.10;99.90
31799;DHT22;18374;51.136;3.502;2022-10-18T17:58:50;14.10;99.90
31799;DHT22;18374;51.136;3.502;2022-10-18T18:01:20;14.00;99.90
31799;DHT22;18374;51.136;3.502;2022-10-18T18:03:54;14.00;99.90
31799;DHT22;18374;51.136;3.502;2022-10-18T18:06:25;13.90;99.90
31799;DHT22;18374;51.136;3.502;2022-10-18T18:09:08;13.90;99.90
31799;DHT22;18374;51.136;3.502;2022-10-18T18:11:39;13.90;99.90
31799;DHT22;18374;51.136;3.502;2022-10-18T18:14:10;13.80;99.90
31799;DHT22;18374;51.136;3.502;2022-10-18T18:16:40;13.80;99.90
31799;DHT22;18374;51.136;3.502;2022-10-18T18:19:09;13.80;99.90
31799;DHT22;18374;51.136;3.502;2022-10-18T18:21:38;13.80;99.90
31799;DHT22;18374;51.136;3.502;2022-10-18T18:24:07;13.70;99.90
31799;DHT22;18374;51.136;3.502;2022-10-18T18:26:37;13.70;99.90
31799;DHT22;18374;51.136;3.502;2022-10-18T18:29:06;13.60;99.90
31799;DHT22;18374;51.136;3.502;2022-10-18T18:31:34;13.60;99.90
31799;DHT22;18374;51.136;3.502;2022-10-18T18:34:09;13.50;99.90
31799;DHT22;18374;51.136;3.502;2022-10-18T18:36:37;13.40;99.90
31799;DHT22;18374;51.136;3.502;2022-10-18T18:39:05;13.50;99.90
31799;DHT22;18374;51.136;3.502;2022-10-18T18:41:33;13.50;99.90
31799;DHT22;18374;51.136;3.502;2022-10-18T18:44:03;13.50;99.90
31799;DHT22;18374;51.136;3.502;2022-10-18T18:46:34;13.50;99.90
31799;DHT22;18374;51.136;3.502;2022-10-18T18:49:06;13.40;99.90